createdAt,value
2019-06-27T00:00:55.049Z,24.04
2019-06-27T00:03:29.639Z,23.97
2019-06-27T00:06:04.769Z,24.01
2019-06-27T00:08:36.157Z,23.98
2019-06-27T00:11:12.029Z,23.91
2019-06-27T00:13:44.681Z,23.79
2019-06-27T00:16:19.920Z,23.80
2019-06-27T00:18:51.278Z,23.80
2019-06-27T00:21:24.161Z,23.85
2019-06-27T00:23:56.148Z,23.80
2019-06-27T00:26:28.275Z,23.76
2019-06-27T00:29:00.259Z,23.73
2019-06-27T00:31:33.288Z,23.70
2019-06-27T00:34:06.306Z,23.65
2019-06-27T00:36:40.204Z,23.65
2019-06-27T00:39:18.145Z,23.68
2019-06-27T00:41:53.722Z,23.59
2019-06-27T00:44:26.082Z,23.44
2019-06-27T00:46:57.366Z,23.45
2019-06-27T00:49:31.012Z,23.48
2019-06-27T00:52:05.032Z,23.39
2019-06-27T00:54:40.029Z,23.32
2019-06-27T00:57:15.074Z,23.40
2019-06-27T00:59:48.339Z,23.47
2019-06-27T01:02:23.466Z,23.49
2019-06-27T01:04:58.999Z,23.40
2019-06-27T01:07:30.506Z,23.35
2019-06-27T01:10:03.365Z,23.42
2019-06-27T01:12:36.516Z,23.40
2019-06-27T01:15:12.966Z,23.41
2019-06-27T01:17:45.381Z,23.44
2019-06-27T01:20:18.453Z,23.38
2019-06-27T01:22:51.186Z,23.44
2019-06-27T01:25:22.407Z,23.40
2019-06-27T01:27:55.675Z,23.36
2019-06-27T01:30:27.666Z,23.37
2019-06-27T01:33:00.663Z,23.34
2019-06-27T01:35:33.637Z,23.35
2019-06-27T01:38:06.478Z,23.37
2019-06-27T01:40:39.716Z,23.26
2019-06-27T01:43:16.989Z,23.24
2019-06-27T01:45:54.340Z,23.21
2019-06-27T01:48:27.837Z,23.23
2019-06-27T01:51:00.886Z,23.23
2019-06-27T01:53:33.789Z,23.21
2019-06-27T01:56:09.412Z,23.19
2019-06-27T01:58:43.527Z,23.17
2019-06-27T02:01:17.670Z,23.19
2019-06-27T02:03:51.411Z,23.18
2019-06-27T02:06:24.741Z,23.04
2019-06-27T02:08:57.746Z,23.04
2019-06-27T02:11:29.874Z,22.96
2019-06-27T02:14:05.406Z,23.03
2019-06-27T02:16:38.766Z,23.03
2019-06-27T02:19:26.272Z,23.08
2019-06-27T02:21:57.724Z,23.01
2019-06-27T02:24:28.951Z,23.01
2019-06-27T02:27:02.843Z,23.00
2019-06-27T02:29:34.865Z,22.80
2019-06-27T02:32:07.048Z,22.67
2019-06-27T02:34:40.044Z,22.74
2019-06-27T02:37:16.285Z,22.79
2019-06-27T02:39:47.820Z,22.71
2019-06-27T02:42:21.883Z,22.66
2019-06-27T02:44:55.750Z,22.68
2019-06-27T02:47:27.056Z,22.68
2019-06-27T02:50:02.512Z,22.78
2019-06-27T02:52:33.961Z,22.80
2019-06-27T02:55:06.995Z,22.70
2019-06-27T02:57:39.133Z,22.73
2019-06-27T03:00:13.672Z,22.74
2019-06-27T03:02:44.874Z,22.76
2019-06-27T03:05:20.201Z,22.68
2019-06-27T03:07:51.550Z,22.63
2019-06-27T03:10:25.007Z,22.65
2019-06-27T03:12:58.007Z,22.61
2019-06-27T03:15:31.016Z,22.54
2019-06-27T03:18:03.977Z,22.16
2019-06-27T03:20:37.999Z,22.09
2019-06-27T03:23:16.819Z,22.13
2019-06-27T03:25:51.182Z,22.05
2019-06-27T03:28:25.155Z,22.12
2019-06-27T03:30:59.989Z,21.84
2019-06-27T03:33:41.379Z,21.99
2019-06-27T03:36:13.257Z,21.89
2019-06-27T03:38:47.245Z,22.03
2019-06-27T03:41:23.051Z,21.96
2019-06-27T03:43:55.215Z,21.96
2019-06-27T03:49:46.024Z,21.99
2019-06-27T03:52:19.147Z,21.87
2019-06-27T03:54:51.902Z,21.91
2019-06-27T03:57:25.104Z,22.06
2019-06-27T03:59:58.319Z,22.19
2019-06-27T04:02:32.165Z,22.14
2019-06-27T04:08:44.838Z,22.16
2019-06-27T04:11:23.673Z,22.28
2019-06-27T04:13:55.352Z,22.29
2019-06-27T04:16:28.260Z,22.40
2019-06-27T04:19:01.581Z,22.42
2019-06-27T04:21:34.363Z,22.47
2019-06-27T04:24:08.301Z,22.58
2019-06-27T04:26:40.559Z,22.50
2019-06-27T04:29:32.632Z,22.39
2019-06-27T04:31:53.920Z,22.25
2019-06-27T04:34:29.926Z,22.19
2019-06-27T04:37:01.424Z,22.08
2019-06-27T04:39:34.163Z,22.16
2019-06-27T04:42:05.766Z,22.22
2019-06-27T04:44:39.757Z,22.38
2019-06-27T04:47:17.882Z,22.49
2019-06-27T04:49:51.621Z,22.61
2019-06-27T04:52:24.477Z,22.68
2019-06-27T04:55:02.740Z,22.62
2019-06-27T04:57:32.606Z,22.64
2019-06-27T05:00:04.844Z,22.55
2019-06-27T05:02:37.605Z,22.64
2019-06-27T05:05:12.319Z,22.65
2019-06-27T05:07:47.444Z,22.74
2019-06-27T05:10:20.903Z,22.63
2019-06-27T05:12:52.143Z,22.63
2019-06-27T05:15:23.557Z,22.67
2019-06-27T05:17:59.305Z,22.70
2019-06-27T05:20:31.075Z,22.82
2019-06-27T05:23:03.112Z,22.97
2019-06-27T05:25:36.823Z,23.03
2019-06-27T05:28:08.036Z,23.16
2019-06-27T05:30:39.683Z,23.18
2019-06-27T05:33:13.899Z,23.30
2019-06-27T05:35:45.417Z,23.40
2019-06-27T05:38:18.214Z,23.60
2019-06-27T05:40:51.921Z,23.72
2019-06-27T05:43:25.668Z,23.80
2019-06-27T05:45:57.823Z,23.95
2019-06-27T05:48:33.528Z,23.95
2019-06-27T05:51:06.816Z,23.80
2019-06-27T05:53:45.615Z,23.84
2019-06-27T05:56:16.150Z,23.96
2019-06-27T05:58:51.897Z,24.13
2019-06-27T06:01:23.168Z,24.30
2019-06-27T06:03:56.119Z,24.41
2019-06-27T06:06:28.100Z,24.53
2019-06-27T06:09:01.069Z,24.68
2019-06-27T06:11:33.870Z,24.77
2019-06-27T06:14:07.935Z,24.87
2019-06-27T06:16:39.746Z,24.90
2019-06-27T06:19:18.462Z,25.08
2019-06-27T06:21:51.993Z,25.19
2019-06-27T06:24:26.758Z,25.33
2019-06-27T06:26:57.995Z,25.28
2019-06-27T06:29:30.104Z,25.54
2019-06-27T06:32:03.880Z,25.55
2019-06-27T06:34:36.396Z,25.68
2019-06-27T06:37:09.257Z,25.91
2019-06-27T06:39:42.420Z,25.94
2019-06-27T06:42:16.537Z,26.11
2019-06-27T06:44:48.062Z,26.20
2019-06-27T06:47:22.831Z,26.18
2019-06-27T06:49:55.233Z,26.30
2019-06-27T06:52:28.173Z,26.51
2019-06-27T06:55:01.026Z,26.56
2019-06-27T06:57:34.272Z,26.71
2019-06-27T07:00:09.007Z,26.68
2019-06-27T07:02:43.122Z,26.82
2019-06-27T07:05:16.294Z,26.97
2019-06-27T07:07:49.364Z,27.10
2019-06-27T07:10:23.995Z,27.11
2019-06-27T07:12:55.199Z,27.22
2019-06-27T07:15:30.101Z,27.38
2019-06-27T07:18:04.347Z,27.42
2019-06-27T07:20:37.273Z,27.47
2019-06-27T07:23:10.276Z,27.46
2019-06-27T07:25:43.329Z,27.66
2019-06-27T07:28:16.305Z,27.68
2019-06-27T07:30:49.251Z,27.98
2019-06-27T07:33:21.545Z,27.80
2019-06-27T07:35:54.413Z,27.78
2019-06-27T07:38:26.503Z,27.89
2019-06-27T07:40:58.443Z,27.84
2019-06-27T07:43:32.699Z,28.03
2019-06-27T07:46:04.483Z,27.98
2019-06-27T07:48:36.467Z,28.10
2019-06-27T07:51:08.918Z,28.19
2019-06-27T07:53:40.352Z,28.23
2019-06-27T07:56:14.403Z,28.27
2019-06-27T07:58:47.571Z,28.35
2019-06-27T08:01:34.077Z,28.35
2019-06-27T08:03:53.362Z,28.40
2019-06-27T08:06:27.019Z,28.42
2019-06-27T08:09:00.236Z,28.43
2019-06-27T08:11:31.455Z,28.65
2019-06-27T08:14:06.214Z,28.65
2019-06-27T08:16:37.593Z,28.71
2019-06-27T08:19:10.741Z,28.76
2019-06-27T08:21:45.506Z,28.73
2019-06-27T08:24:19.520Z,28.85
2019-06-27T08:26:52.047Z,28.80
2019-06-27T08:29:26.855Z,28.85
2019-06-27T08:31:58.524Z,29.07
2019-06-27T08:34:31.634Z,29.09
2019-06-27T08:37:05.082Z,29.30
2019-06-27T08:39:38.011Z,29.24
2019-06-27T08:42:10.766Z,29.31
2019-06-27T08:44:42.083Z,29.13
2019-06-27T08:47:14.697Z,29.30
2019-06-27T08:49:47.827Z,29.36
2019-06-27T08:52:19.834Z,29.38
2019-06-27T08:54:52.071Z,29.40
2019-06-27T08:57:27.404Z,29.40
2019-06-27T08:59:59.477Z,29.44
2019-06-27T09:02:32.823Z,29.41
2019-06-27T09:05:04.821Z,29.65
2019-06-27T09:07:40.664Z,29.74
2019-06-27T09:10:14.818Z,29.77
2019-06-27T09:12:48.103Z,29.85
2019-06-27T09:15:19.889Z,29.74
2019-06-27T09:17:52.199Z,29.80
2019-06-27T09:20:24.858Z,30.09
2019-06-27T09:22:57.637Z,30.31
2019-06-27T09:25:28.896Z,30.16
2019-06-27T09:28:02.165Z,29.78
2019-06-27T09:30:35.063Z,29.71
2019-06-27T09:33:08.194Z,29.76
2019-06-27T09:35:41.927Z,29.84
2019-06-27T09:38:13.917Z,29.77
2019-06-27T09:40:47.333Z,29.69
2019-06-27T09:43:19.113Z,29.87
2019-06-27T09:45:52.130Z,29.74
2019-06-27T09:48:24.989Z,29.69
2019-06-27T09:50:59.030Z,29.92
2019-06-27T09:53:31.023Z,29.92
2019-06-27T09:56:04.020Z,29.72
2019-06-27T09:58:37.415Z,29.92
2019-06-27T10:01:10.989Z,29.96
2019-06-27T10:03:46.398Z,29.73
2019-06-27T10:06:19.168Z,29.75
2019-06-27T10:08:52.338Z,29.87
2019-06-27T10:11:25.130Z,29.93
2019-06-27T10:14:00.511Z,29.88
2019-06-27T10:16:36.411Z,30.22
2019-06-27T10:19:11.973Z,30.05
2019-06-27T10:21:43.220Z,30.04
2019-06-27T10:24:16.396Z,30.22
2019-06-27T10:26:48.328Z,29.99
2019-06-27T10:29:31.490Z,29.69
2019-06-27T10:32:05.418Z,29.57
2019-06-27T10:34:39.340Z,29.63
2019-06-27T10:40:47.277Z,30.00
2019-06-27T10:43:19.309Z,30.09
2019-06-27T10:45:51.478Z,30.08
2019-06-27T10:51:48.939Z,29.98
2019-06-27T10:54:25.762Z,30.09
2019-06-27T10:57:00.384Z,30.25
2019-06-27T10:59:33.447Z,30.21
2019-06-27T11:02:13.842Z,30.16
2019-06-27T11:04:47.102Z,30.20
2019-06-27T11:07:19.544Z,30.33
2019-06-27T11:24:05.250Z,30.83
2019-06-27T11:37:34.128Z,30.77
2019-06-27T11:43:33.828Z,30.86
2019-06-27T11:46:08.832Z,30.70
2019-06-27T11:52:26.473Z,30.75
2019-06-27T11:55:00.807Z,30.86
2019-06-27T11:57:34.821Z,30.97
2019-06-27T12:00:08.881Z,31.12
2019-06-27T12:02:42.892Z,31.07
2019-06-27T12:05:16.760Z,30.90
2019-06-27T12:07:49.759Z,30.91
2019-06-27T12:10:57.136Z,31.21
2019-06-27T12:13:29.983Z,31.25
2019-06-27T12:16:02.901Z,31.37
2019-06-27T12:18:35.822Z,31.38
2019-06-27T12:21:14.476Z,31.36
2019-06-27T12:27:16.676Z,31.06
2019-06-27T12:29:51.110Z,31.16
2019-06-27T12:32:25.219Z,30.92
2019-06-27T12:48:36.944Z,31.12
2019-06-27T12:51:08.079Z,31.29
2019-06-27T12:53:42.635Z,31.40
2019-06-27T12:56:23.350Z,31.37
2019-06-27T12:58:56.060Z,31.09
2019-06-27T13:01:31.239Z,30.65
2019-06-27T13:04:22.372Z,30.54
2019-06-27T13:06:41.857Z,30.45
2019-06-27T13:09:14.242Z,30.37
2019-06-27T13:11:48.551Z,30.17
2019-06-27T13:14:21.153Z,29.96
2019-06-27T13:16:54.662Z,29.88
2019-06-27T13:19:28.602Z,29.67
2019-06-27T13:22:01.189Z,29.52
2019-06-27T13:24:32.424Z,29.39
2019-06-27T13:27:05.531Z,29.35
2019-06-27T13:29:38.198Z,29.37
2019-06-27T13:32:11.168Z,29.15
2019-06-27T13:34:43.286Z,29.22
2019-06-27T13:37:16.230Z,29.05
2019-06-27T13:39:49.299Z,28.92
2019-06-27T13:42:23.402Z,28.80
2019-06-27T13:44:56.251Z,28.68
2019-06-27T13:47:30.156Z,28.74
2019-06-27T13:50:02.334Z,28.49
2019-06-27T13:52:36.356Z,28.40
2019-06-27T13:55:08.706Z,28.24
2019-06-27T13:57:41.671Z,28.45
2019-06-27T14:00:15.935Z,28.46
2019-06-27T14:02:47.283Z,28.38
2019-06-27T14:05:20.510Z,28.43
2019-06-27T14:07:53.241Z,28.46
2019-06-27T14:10:28.086Z,28.28
2019-06-27T14:12:59.321Z,28.05
2019-06-27T14:15:34.169Z,28.15
2019-06-27T14:18:05.978Z,27.98
2019-06-27T14:20:39.487Z,27.83
2019-06-27T14:23:13.083Z,27.86
2019-06-27T14:25:45.412Z,27.63
2019-06-27T14:28:18.627Z,27.76
2019-06-27T14:30:51.586Z,27.73
2019-06-27T14:33:23.869Z,27.75
2019-06-27T14:35:55.414Z,27.64
2019-06-27T14:38:28.567Z,27.51
2019-06-27T14:41:01.563Z,27.52
2019-06-27T14:43:37.803Z,27.60
2019-06-27T14:46:10.658Z,27.65
2019-06-27T14:48:49.908Z,27.58
2019-06-27T14:51:23.651Z,27.48
2019-06-27T14:53:57.342Z,27.49
2019-06-27T14:56:33.136Z,27.56
2019-06-27T14:59:05.712Z,27.58
2019-06-27T15:01:37.494Z,27.56
2019-06-27T15:04:10.683Z,27.61
2019-06-27T15:06:43.693Z,27.49
2019-06-27T15:09:17.690Z,27.46
2019-06-27T15:11:52.491Z,27.39
2019-06-27T15:14:27.800Z,27.31
2019-06-27T15:17:03.273Z,27.27
2019-06-27T15:19:36.477Z,27.24
2019-06-27T15:22:10.851Z,27.06
2019-06-27T15:24:42.110Z,26.86
2019-06-27T15:27:13.872Z,26.77
2019-06-27T15:29:46.859Z,26.87
2019-06-27T15:32:20.887Z,26.94
2019-06-27T15:34:53.531Z,26.82
2019-06-27T15:37:25.846Z,26.68
2019-06-27T15:39:58.849Z,26.62
2019-06-27T15:42:30.051Z,26.64
2019-06-27T15:45:01.944Z,26.50
2019-06-27T15:47:35.034Z,26.64
2019-06-27T15:50:08.270Z,26.65
2019-06-27T15:52:40.988Z,26.54
2019-06-27T15:55:14.034Z,26.57
2019-06-27T15:57:47.149Z,26.51
2019-06-27T16:00:19.901Z,26.65
2019-06-27T16:02:52.814Z,26.57
2019-06-27T16:05:26.321Z,26.94
2019-06-27T16:08:00.602Z,27.01
2019-06-27T16:10:31.919Z,27.13
2019-06-27T16:13:04.944Z,27.24
2019-06-27T16:15:38.239Z,27.35
2019-06-27T16:18:11.407Z,27.55
2019-06-27T16:20:43.053Z,27.56
2019-06-27T16:23:17.010Z,27.62
2019-06-27T16:25:50.176Z,27.81
2019-06-27T16:28:26.742Z,27.86
2019-06-27T16:30:58.571Z,27.95
2019-06-27T16:33:31.046Z,28.08
2019-06-27T16:36:05.240Z,28.02
2019-06-27T16:38:38.223Z,27.87
2019-06-27T16:41:11.862Z,27.85
2019-06-27T16:43:44.278Z,27.80
2019-06-27T16:46:17.210Z,27.87
2019-06-27T16:48:51.123Z,27.79
2019-06-27T16:51:23.361Z,27.83
2019-06-27T16:53:56.288Z,27.88
2019-06-27T16:56:29.266Z,27.91
2019-06-27T16:59:06.008Z,27.92
2019-06-27T17:01:42.993Z,27.99
2019-06-27T17:04:14.334Z,27.96
2019-06-27T17:06:46.348Z,28.13
2019-06-27T17:09:20.474Z,28.28
2019-06-27T17:11:52.890Z,28.44
2019-06-27T17:14:33.711Z,28.56
2019-06-27T17:17:05.287Z,28.45
2019-06-27T17:19:39.108Z,28.47
2019-06-27T17:22:12.531Z,28.42
2019-06-27T17:24:46.388Z,28.44
2019-06-27T17:27:21.607Z,28.36
2019-06-27T17:29:52.880Z,28.47
2019-06-27T17:32:27.159Z,28.43
2019-06-27T17:34:59.558Z,28.22
2019-06-27T17:37:31.394Z,28.32
2019-06-27T17:40:10.010Z,28.31
2019-06-27T17:42:42.483Z,28.22
2019-06-27T17:45:20.415Z,28.13
2019-06-27T17:47:52.855Z,28.11
2019-06-27T17:50:28.177Z,27.94
2019-06-27T17:52:59.431Z,27.90
2019-06-27T17:55:32.709Z,27.88
2019-06-27T17:58:06.054Z,27.73
2019-06-27T18:00:39.607Z,27.64
2019-06-27T18:03:13.971Z,27.66
2019-06-27T18:05:47.699Z,27.59
2019-06-27T18:08:20.262Z,27.38
2019-06-27T18:14:44.553Z,27.04
2019-06-27T18:17:33.946Z,27.08
2019-06-27T18:20:07.717Z,27.01
2019-06-27T18:22:42.899Z,26.98
2019-06-27T18:25:17.524Z,26.72
2019-06-27T18:27:51.216Z,26.71
2019-06-27T18:30:25.738Z,26.62
2019-06-27T18:33:01.000Z,26.36
2019-06-27T18:35:42.256Z,26.30
2019-06-27T18:38:14.892Z,26.27
2019-06-27T18:40:46.484Z,26.30
2019-06-27T18:50:36.693Z,25.82
2019-06-27T18:56:47.209Z,25.49
2019-06-27T18:59:18.449Z,25.47
2019-06-27T19:01:54.034Z,25.36
2019-06-27T19:04:31.167Z,24.94
2019-06-27T19:07:02.847Z,24.92
2019-06-27T19:09:35.463Z,24.49
2019-06-27T19:12:09.041Z,24.50
2019-06-27T19:14:42.544Z,24.48
2019-06-27T19:17:17.747Z,24.27
2019-06-27T19:19:53.677Z,24.06
2019-06-27T19:22:43.952Z,24.04
2019-06-27T19:25:30.351Z,24.13
2019-06-27T19:28:02.756Z,24.03
2019-06-27T19:30:34.030Z,24.13
2019-06-27T19:33:07.998Z,24.07
2019-06-27T19:35:41.291Z,23.71
2019-06-27T19:38:12.989Z,23.81
2019-06-27T19:40:47.008Z,23.60
2019-06-27T19:43:27.886Z,23.51
2019-06-27T19:45:53.338Z,23.47
2019-06-27T19:48:25.757Z,23.19
2019-06-27T19:51:00.471Z,23.39
2019-06-27T19:53:32.516Z,22.96
2019-06-27T19:56:05.181Z,23.17
2019-06-27T19:58:39.452Z,23.37
2019-06-27T20:01:12.291Z,23.09
2019-06-27T20:03:45.716Z,23.52
2019-06-27T20:06:18.469Z,23.34
2019-06-27T20:08:51.078Z,23.39
2019-06-27T20:11:25.496Z,23.30
2019-06-27T20:13:59.269Z,23.30
2019-06-27T20:16:32.231Z,23.19
2019-06-27T20:19:06.100Z,23.21
2019-06-27T20:21:40.285Z,23.17
2019-06-27T20:24:14.636Z,23.14
2019-06-27T20:26:48.665Z,23.08
2019-06-27T20:29:22.577Z,23.11
2019-06-27T20:31:53.876Z,23.22
2019-06-27T20:34:28.353Z,23.15
2019-06-27T20:37:02.329Z,23.09
2019-06-27T20:39:35.300Z,23.05
2019-06-27T20:42:08.258Z,22.92
2019-06-27T20:44:40.249Z,23.00
2019-06-27T20:47:12.077Z,23.01
2019-06-27T20:49:46.035Z,23.14
2019-06-27T20:52:18.525Z,22.89
2019-06-27T20:54:52.076Z,23.00
2019-06-27T20:57:26.226Z,23.00
2019-06-27T21:00:01.137Z,22.75
2019-06-27T21:02:32.560Z,22.79
2019-06-27T21:05:06.753Z,22.78
2019-06-27T21:07:38.433Z,22.74
2019-06-27T21:10:13.032Z,22.82
2019-06-27T21:12:44.384Z,22.61
2019-06-27T21:15:17.704Z,22.65
2019-06-27T21:17:49.369Z,22.65
2019-06-27T21:20:22.769Z,22.56
2019-06-27T21:22:57.159Z,22.48
2019-06-27T21:25:29.561Z,22.50
2019-06-27T21:28:02.504Z,22.54
2019-06-27T21:30:35.657Z,22.52
2019-06-27T21:33:08.984Z,21.85
2019-06-27T21:35:44.664Z,22.21
2019-06-27T21:38:17.315Z,22.18
2019-06-27T21:40:49.506Z,22.07
2019-06-27T21:43:24.543Z,22.13
2019-06-27T21:45:56.551Z,22.09
2019-06-27T21:48:29.200Z,21.97
2019-06-27T21:51:03.276Z,22.01
2019-06-27T21:53:40.652Z,21.89
2019-06-27T21:56:16.866Z,21.75
2019-06-27T21:58:49.198Z,21.80
2019-06-27T22:04:46.585Z,21.63
2019-06-27T22:07:21.674Z,21.70
2019-06-27T22:09:53.365Z,21.62
2019-06-27T22:12:26.370Z,21.68
2019-06-27T22:14:58.664Z,21.41
2019-06-27T22:17:31.646Z,21.03
2019-06-27T22:20:14.470Z,21.26
2019-06-27T22:22:37.842Z,21.51
2019-06-27T22:25:11.425Z,21.32
2019-06-27T22:27:43.026Z,21.23
2019-06-27T22:30:15.257Z,20.98
2019-06-27T22:32:50.113Z,21.11
2019-06-27T22:35:21.331Z,21.17
2019-06-27T22:38:11.119Z,21.20
2019-06-27T22:41:02.698Z,21.15
2019-06-27T22:43:52.359Z,20.81
2019-06-27T22:46:43.869Z,20.80
2019-06-27T22:49:16.113Z,20.78
2019-06-27T22:52:05.977Z,20.79
2019-06-27T22:54:40.842Z,20.65
2019-06-27T22:57:16.220Z,20.35
2019-06-27T22:59:51.789Z,20.53
2019-06-27T23:02:24.884Z,20.37
2019-06-27T23:04:58.117Z,20.22
2019-06-27T23:07:33.167Z,20.23
2019-06-27T23:10:06.204Z,20.08
2019-06-27T23:12:39.306Z,20.07
2019-06-27T23:15:12.419Z,20.17
2019-06-27T23:17:43.972Z,20.12
2019-06-27T23:20:18.208Z,20.06
2019-06-27T23:22:51.301Z,20.07
2019-06-27T23:25:25.224Z,19.87
2019-06-27T23:27:57.088Z,19.76
2019-06-27T23:30:31.116Z,19.74
2019-06-27T23:33:03.174Z,19.45
2019-06-27T23:35:37.407Z,19.13
2019-06-27T23:38:09.136Z,19.15
2019-06-27T23:40:41.374Z,19.09
2019-06-27T23:43:14.313Z,19.30
2019-06-27T23:45:45.616Z,19.28
2019-06-27T23:48:18.430Z,19.36
2019-06-27T23:50:53.048Z,19.42
2019-06-27T23:53:27.366Z,19.35
2019-06-27T23:55:59.681Z,19.13
2019-06-27T23:58:32.520Z,19.11
